Sun Princess — ZCBU6 — position and weather

sailwx.info

Track history (hours):
 
Tides and Currents Weather Stations Pressure Air Temp Water Temp Dewpoint Dewpoint Depression Visibility Wind Speed Wind Dir Waves Ship Positions

Sun Princess

Operator: Princess Cruises

Last reported at 2019-Jan-23 03:00 UTC. Time now 2019-Jan-23 17:53 UTC.
Position S 29°36' E 157°00'.

Length 261.3 m; beam 32.3 m; draft 8.1 m.

Type: Passenger vessel. MMSI: 310438000.

Wind from 340 at 17 knots

Barometer 1013.9 mb
Air temperature 25.0 ° C
Visibility: greater than 10.8 NM
Dewpoint 22.0 ° C
Water temperature 25.8 ° C

Date/timePositionNaut miles runAvg speedWind from/ knotsBaromVisibWave heightAir tempDewpointWater temp
2019-Jan-23 03:00S 29°36' E 157°00'17219.1 340 / 171013.910.8 25.022.025.8
2019-Jan-22 18:00S 31°30' E 154°30'9018.9 360 / 201011.410.8 25.022.825.7
2019-Jan-22 13:14S 32°31' E 153°12'917.7
2019-Jan-22 12:44S 32°37' E 153°04'417.5
2019-Jan-22 12:30S 32°40' E 153°01'2017.0
2019-Jan-22 11:20S 32°52' E 152°42'516.4
2019-Jan-22 11:00S 32°55' E 152°37'816.0
2019-Jan-22 10:31S 33°01' E 152°30'816.2
2019-Jan-22 10:01S 33°07' E 152°23'2016.6
2019-Jan-22 08:47S 33°20' E 152°05'1817.2
2019-Jan-22 07:44S 33°32' E 151°48'417.5
2019-Jan-22 07:30S 33°34' E 151°45'1019.2
2019-Jan-22 07:01S 33°40' E 151°36'1019.0
2019-Jan-22 06:30S 33°46' E 151°27'816.0
2019-Jan-22 06:00S 33°50' E 151°19'4 8.4
2019-Jan-22 05:30S 33°51' E 151°14'1 1.7
2019-Jan-22 04:51S 33°52' E 151°13'0 0.0
2019-Jan-22 04:30S 33°52' E 151°13'0 0.0
2019-Jan-22 04:00S 33°52' E 151°13'0 0.0
2019-Jan-22 03:00S 33°52' E 151°13'0 0.0
2019-Jan-22 02:30S 33°52' E 151°13'0 0.0
2019-Jan-22 02:00S 33°52' E 151°13'0 0.0
2019-Jan-22 01:30S 33°52' E 151°13'0 0.0
2019-Jan-22 01:00S 33°52' E 151°13'0 0.0
2019-Jan-22 00:30S 33°52' E 151°13'0 0.0
2019-Jan-22 00:00S 33°52' E 151°13'0 0.0
2019-Jan-21 23:30S 33°52' E 151°13'0 0.0
2019-Jan-21 23:00S 33°52' E 151°13'0 0.0
2019-Jan-21 22:30S 33°52' E 151°13'0 0.0
2019-Jan-21 21:57S 33°52' E 151°13'0 0.0
2019-Jan-21 21:30S 33°52' E 151°13'0 0.0
2019-Jan-21 20:57S 33°52' E 151°13'0 0.0
2019-Jan-21 20:30S 33°52' E 151°13'0 0.0
2019-Jan-21 20:00S 33°52' E 151°13'0 0.0
2019-Jan-21 19:30S 33°52' E 151°13'1 2.4
2019-Jan-21 19:00S 33°51' E 151°14'5 9.1
2019-Jan-21 18:30S 33°50' E 151°19'611.7
2019-Jan-21 18:00S 33°51' E 151°26'713.1
2019-Jan-21 17:30S 33°51' E 151°34'713.9
2019-Jan-21 17:00S 33°53' E 151°42'713.2
2019-Jan-21 16:30S 33°55' E 151°50'713.3
2019-Jan-21 15:59S 33°57' E 151°58'611.6
2019-Jan-21 15:30S 33°59' E 152°04'611.1
2019-Jan-21 15:00S 34°00' E 152°11'4311.4
2019-Jan-21 15:00S 34°00' E 152°06'1019.2 020 / 251015.510.8 25.017.026.1
2019-Jan-21 14:30S 34°02' E 152°17'611.9
2019-Jan-21 14:00S 34°04' E 152°24'611.9
2019-Jan-21 13:30S 34°06' E 152°31'612.0
2019-Jan-21 13:00S 34°07' E 152°38'612.3
2019-Jan-21 12:30S 34°09' E 152°45'4 7.9
2019-Jan-21 12:00S 34°06' E 152°48'13114.5 050 / 151017.710.8 29.026.230.0
2019-Jan-21 03:00S 34°48' E 155°18'26717.8 060 / 111019.110.8 24.019.425.1
2019-Jan-20 12:00S 36°24' E 160°24'10918.2 260 / 201018.810.8 20.515.521.0
2019-Jan-20 06:00S 37°06' E 162°30'5117.0 230 / 151018.310.8 21.013.223.5
2019-Jan-20 03:00S 37°24' E 163°30'5819.2 230 / 161008.310.8 20.117.522.3
2019-Jan-20 00:00S 37°48' E 164°36'10116.8 240 / 151018.010.8 19.412.320.0
2019-Jan-19 18:00S 38°24' E 166°36'5919.7 200 / 271014.310.8 18.512.619.2
2019-Jan-19 15:00S 38°42' E 167°48'17619.5 210 / 271012.310.8 19.017.419.7
2019-Jan-19 06:00S 39°48' E 171°18'5819.4 320 / 281007.710.8 20.519.720.6
2019-Jan-19 03:00S 40°06' E 172°30'2021.5 320 / 241010.510.8 19.517.919.2
2019-Jan-19 02:03S 40°15' E 172°53'219.7
2019-Jan-19 01:57S 40°16' E 172°56'1019.5
2019-Jan-19 01:26S 40°20' E 173°08'819.2
2019-Jan-19 01:01S 40°22' E 173°18'1018.7
2019-Jan-19 00:29S 40°26' E 173°30'918.6
2019-Jan-19 00:00S 40°29' E 173°41'918.7
2019-Jan-18 23:31S 40°32' E 173°53'918.2
2019-Jan-18 23:00S 40°36' E 174°04'918.6
2019-Jan-18 22:31S 40°43' E 174°12'1019.3
2019-Jan-18 22:01S 40°51' E 174°20'918.5
2019-Jan-18 21:31S 40°58' E 174°27'917.9
2019-Jan-18 21:01S 41°07' E 174°30'1020.1
2019-Jan-18 20:31S 41°17' E 174°28'1019.9
2019-Jan-18 20:01S 41°27' E 174°27'1019.8
2019-Jan-18 19:30S 41°37' E 174°25'1019.3
2019-Jan-18 19:01S 41°46' E 174°24'1019.1
2019-Jan-18 18:30S 41°55' E 174°18'1019.3
2019-Jan-18 18:00S 42°03' E 174°11'9604.6
2019-Jan-18 18:00S 41°54' E 174°12'1938.3 360 / 351007.510.8 17.216.017.6
2019-Jan-18 17:30S 42°12' E 174°04'1020.2
2019-Jan-18 16:59S 42°21' E 173°57'1020.9
2019-Jan-18 16:31S 42°29' E 173°50'1121.0
2019-Jan-18 16:01S 42°38' E 173°43'1121.2
2019-Jan-18 15:28S 42°49' E 173°39'19220.3
2019-Jan-18 06:00S 45°24' E 171°00'161 4.2 060 / 101012.010.8 15.214.015.0
2019-Jan-16 15:20S 43°24' E 173°29'720.6
2019-Jan-16 15:00S 43°17' E 173°33'2486.8
2019-Jan-16 15:00S 43°18' E 173°30'1224.0 020 / 171008.810.8 14.512.716.6
2019-Jan-16 14:30S 43°08' E 173°39'1220.6
2019-Jan-16 13:55S 42°57' E 173°46'1320.5
2019-Jan-16 13:18S 42°46' E 173°53'820.3
2019-Jan-16 12:54S 42°38' E 173°58'820.3
2019-Jan-16 12:30S 42°31' E 174°02'1020.3
2019-Jan-16 12:00S 42°22' E 174°08'1020.3
2019-Jan-16 11:30S 42°13' E 174°14'1020.2
2019-Jan-16 11:00S 42°04' E 174°19'1020.1
2019-Jan-16 10:30S 41°54' E 174°23'1019.9
2019-Jan-16 10:00S 41°44' E 174°26'1020.6
2019-Jan-16 09:31S 41°34' E 174°26'1121.2
2019-Jan-16 09:00S 41°23' E 174°27'1020.9
2019-Jan-16 08:30S 41°13' E 174°29'1020.1
2019-Jan-16 08:00S 41°03' E 174°31'815.7
2019-Jan-16 07:30S 41°03' E 174°21'612.9
2019-Jan-16 07:01S 41°08' E 174°15'815.1
2019-Jan-16 06:30S 41°14' E 174°08'613.0
2019-Jan-16 06:00S 41°16' E 174°00'1 1.0
2019-Jan-16 05:28S 41°17' E 173°60'0 0.0
2019-Jan-16 04:58S 41°17' E 173°60'0 0.0
2019-Jan-16 04:28S 41°17' E 173°60'0 0.0
2019-Jan-16 03:58S 41°17' E 173°60'0 0.0
2019-Jan-16 03:28S 41°17' E 173°60'0 0.0
2019-Jan-16 02:58S 41°17' E 173°60'0 0.0
2019-Jan-16 02:28S 41°17' E 173°60'0 0.0
2019-Jan-16 01:58S 41°17' E 173°60'0 0.0
2019-Jan-16 01:28S 41°17' E 173°60'0 0.0
2019-Jan-16 00:58S 41°17' E 173°60'0 0.0
2019-Jan-16 00:28S 41°17' E 173°60'0 0.0
2019-Jan-15 23:58S 41°17' E 173°60'0 0.0
2019-Jan-15 23:28S 41°17' E 173°60'0 0.0
2019-Jan-15 22:58S 41°17' E 173°60'0 0.0
2019-Jan-15 22:30S 41°17' E 173°60'1 1.1
2019-Jan-15 22:00S 41°16' E 174°00'2 4.7
2019-Jan-15 21:30S 41°15' E 174°03'714.1
2019-Jan-15 21:00S 41°12' E 174°12'714.8
2019-Jan-15 20:30S 41°06' E 174°17'611.1
2019-Jan-15 20:00S 41°02' E 174°22'612.6
2019-Jan-15 19:30S 41°01' E 174°31'917.2
2019-Jan-15 19:01S 41°10' E 174°33'918.1
2019-Jan-15 18:31S 41°18' E 174°29'816.1
2019-Jan-15 18:01S 41°26' E 174°34'1121.1
2019-Jan-15 17:31S 41°31' E 174°46'1121.2
2019-Jan-15 17:01S 41°37' E 174°58'1021.0
2019-Jan-15 16:31S 41°42' E 175°10'1020.3
2019-Jan-15 16:00S 41°42' E 175°24'199 9.0
2019-Jan-14 18:00S 39°06' E 178°06'5819.6 070 / 71006.327.0 18.516.922.0
2019-Jan-14 15:00S 38°14' E 178°39'5318.6
2019-Jan-14 12:09S 37°22' E 178°26'3321.2
2019-Jan-14 10:36S 37°18' E 177°45'221.4
2019-Jan-14 10:30S 37°18' E 177°42'1121.5
2019-Jan-14 10:00S 37°17' E 177°29'1120.9
2019-Jan-14 09:30S 37°16' E 177°16'1020.5
2019-Jan-14 09:00S 37°16' E 177°03'1020.5
2019-Jan-14 08:30S 37°20' E 176°51'1020.3
2019-Jan-14 08:00S 37°24' E 176°39'1020.5
2019-Jan-14 07:30S 37°28' E 176°27'1019.5
2019-Jan-14 07:00S 37°32' E 176°16'714.4
2019-Jan-14 06:30S 37°38' E 176°10'1 2.4
2019-Jan-14 05:58S 37°39' E 176°11'0 0.0
2019-Jan-14 05:28S 37°39' E 176°11'0 0.0
2019-Jan-14 04:58S 37°39' E 176°11'0 0.0
2019-Jan-14 04:28S 37°39' E 176°11'0 0.0
2019-Jan-14 03:58S 37°39' E 176°11'0 0.0
2019-Jan-14 03:28S 37°39' E 176°11'0 0.0
2019-Jan-14 02:58S 37°39' E 176°11'0 0.0
2019-Jan-14 02:28S 37°39' E 176°11'0 0.0
2019-Jan-14 01:58S 37°39' E 176°11'0 0.0
2019-Jan-14 01:28S 37°39' E 176°11'0 0.0
2019-Jan-14 00:58S 37°39' E 176°11'0 0.0
2019-Jan-14 00:28S 37°39' E 176°11'0 0.0
2019-Jan-13 23:58S 37°39' E 176°11'0 0.0
2019-Jan-13 23:28S 37°39' E 176°11'0 0.0
2019-Jan-13 22:58S 37°39' E 176°11'0 0.0
2019-Jan-13 22:28S 37°39' E 176°11'0 0.0
2019-Jan-13 21:58S 37°39' E 176°11'0 0.0
2019-Jan-13 21:25S 37°39' E 176°11'0 0.0
2019-Jan-13 20:58S 37°39' E 176°11'0 0.0
2019-Jan-13 20:25S 37°39' E 176°11'0 0.0
2019-Jan-13 19:58S 37°39' E 176°11'0 0.0
2019-Jan-13 19:28S 37°39' E 176°11'0 0.0
2019-Jan-13 18:58S 37°39' E 176°11'0 0.0
2019-Jan-13 18:30S 37°39' E 176°11'2 3.4
2019-Jan-13 18:00S 37°37' E 176°10'5 9.8
2019-Jan-13 17:30S 37°33' E 176°13'712.7
2019-Jan-13 16:56S 37°26' E 176°17'79 8.6
2019-Jan-13 07:41S 36°32' E 175°04'2 9.6
2019-Jan-13 07:30S 36°34' E 175°02'5 9.9
2019-Jan-13 07:01S 36°37' E 174°58'5 9.9
2019-Jan-13 06:31S 36°41' E 174°54'5 9.9
2019-Jan-13 06:01S 36°44' E 174°50'4 8.7
2019-Jan-13 05:31S 36°49' E 174°50'3 6.6
2019-Jan-13 05:01S 36°50' E 174°46'0 0.4
2019-Jan-13 04:30S 36°51' E 174°46'0 0.0
2019-Jan-13 04:00S 36°51' E 174°46'0 0.0
2019-Jan-13 03:30S 36°51' E 174°46'0 0.0
2019-Jan-13 03:00S 36°51' E 174°46'  
Track history (hours):
 
Tides and Currents Weather Stations Pressure Air Temp Water Temp Dewpoint Dewpoint Depression Visibility Wind Speed Wind Dir Waves Ship Positions

Sun Princess

Operator: Princess Cruises

Last reported at 2019-Jan-23 03:00 UTC. Time now 2019-Jan-23 17:53 UTC.
Position S 29°36' E 157°00'.

Length 261.3 m; beam 32.3 m; draft 8.1 m.

Type: Passenger vessel. MMSI: 310438000.

Wind from 340 at 17 knots

Barometer 1013.9 mb
Air temperature 25.0 ° C
Visibility: greater than 10.8 NM
Dewpoint 22.0 ° C
Water temperature 25.8 ° C

Date/timePositionNaut miles runAvg speedWind from/ knotsBaromVisibWave heightAir tempDewpointWater temp
2019-Jan-23 03:00S 29°36' E 157°00'17219.1 340 / 171013.910.8 25.022.025.8
2019-Jan-22 18:00S 31°30' E 154°30'9018.9 360 / 201011.410.8 25.022.825.7
2019-Jan-22 13:14S 32°31' E 153°12'917.7
2019-Jan-22 12:44S 32°37' E 153°04'417.5
2019-Jan-22 12:30S 32°40' E 153°01'2017.0
2019-Jan-22 11:20S 32°52' E 152°42'516.4
2019-Jan-22 11:00S 32°55' E 152°37'816.0
2019-Jan-22 10:31S 33°01' E 152°30'816.2
2019-Jan-22 10:01S 33°07' E 152°23'2016.6
2019-Jan-22 08:47S 33°20' E 152°05'1817.2
2019-Jan-22 07:44S 33°32' E 151°48'417.5
2019-Jan-22 07:30S 33°34' E 151°45'1019.2
2019-Jan-22 07:01S 33°40' E 151°36'1019.0
2019-Jan-22 06:30S 33°46' E 151°27'816.0
2019-Jan-22 06:00S 33°50' E 151°19'4 8.4
2019-Jan-22 05:30S 33°51' E 151°14'1 1.7
2019-Jan-22 04:51S 33°52' E 151°13'0 0.0
2019-Jan-22 04:30S 33°52' E 151°13'0 0.0
2019-Jan-22 04:00S 33°52' E 151°13'0 0.0
2019-Jan-22 03:00S 33°52' E 151°13'0 0.0
2019-Jan-22 02:30S 33°52' E 151°13'0 0.0
2019-Jan-22 02:00S 33°52' E 151°13'0 0.0
2019-Jan-22 01:30S 33°52' E 151°13'0 0.0
2019-Jan-22 01:00S 33°52' E 151°13'0 0.0
2019-Jan-22 00:30S 33°52' E 151°13'0 0.0
2019-Jan-22 00:00S 33°52' E 151°13'0 0.0
2019-Jan-21 23:30S 33°52' E 151°13'0 0.0
2019-Jan-21 23:00S 33°52' E 151°13'0 0.0
2019-Jan-21 22:30S 33°52' E 151°13'0 0.0
2019-Jan-21 21:57S 33°52' E 151°13'0 0.0
2019-Jan-21 21:30S 33°52' E 151°13'0 0.0
2019-Jan-21 20:57S 33°52' E 151°13'0 0.0
2019-Jan-21 20:30S 33°52' E 151°13'0 0.0
2019-Jan-21 20:00S 33°52' E 151°13'0 0.0
2019-Jan-21 19:30S 33°52' E 151°13'1 2.4
2019-Jan-21 19:00S 33°51' E 151°14'5 9.1
2019-Jan-21 18:30S 33°50' E 151°19'611.7
2019-Jan-21 18:00S 33°51' E 151°26'713.1
2019-Jan-21 17:30S 33°51' E 151°34'713.9
2019-Jan-21 17:00S 33°53' E 151°42'713.2
2019-Jan-21 16:30S 33°55' E 151°50'713.3
2019-Jan-21 15:59S 33°57' E 151°58'611.6
2019-Jan-21 15:30S 33°59' E 152°04'611.1
2019-Jan-21 15:00S 34°00' E 152°11'4311.4
2019-Jan-21 15:00S 34°00' E 152°06'1019.2 020 / 251015.510.8 25.017.026.1
2019-Jan-21 14:30S 34°02' E 152°17'611.9
2019-Jan-21 14:00S 34°04' E 152°24'611.9
2019-Jan-21 13:30S 34°06' E 152°31'612.0
2019-Jan-21 13:00S 34°07' E 152°38'612.3
2019-Jan-21 12:30S 34°09' E 152°45'4 7.9
2019-Jan-21 12:00S 34°06' E 152°48'13114.5 050 / 151017.710.8 29.026.230.0
2019-Jan-21 03:00S 34°48' E 155°18'26717.8 060 / 111019.110.8 24.019.425.1
2019-Jan-20 12:00S 36°24' E 160°24'10918.2 260 / 201018.810.8 20.515.521.0
2019-Jan-20 06:00S 37°06' E 162°30'5117.0 230 / 151018.310.8 21.013.223.5
2019-Jan-20 03:00S 37°24' E 163°30'5819.2 230 / 161008.310.8 20.117.522.3
2019-Jan-20 00:00S 37°48' E 164°36'10116.8 240 / 151018.010.8 19.412.320.0
2019-Jan-19 18:00S 38°24' E 166°36'5919.7 200 / 271014.310.8 18.512.619.2
2019-Jan-19 15:00S 38°42' E 167°48'17619.5 210 / 271012.310.8 19.017.419.7
2019-Jan-19 06:00S 39°48' E 171°18'5819.4 320 / 281007.710.8 20.519.720.6
2019-Jan-19 03:00S 40°06' E 172°30'2021.5 320 / 241010.510.8 19.517.919.2
2019-Jan-19 02:03S 40°15' E 172°53'219.7
2019-Jan-19 01:57S 40°16' E 172°56'1019.5
2019-Jan-19 01:26S 40°20' E 173°08'819.2
2019-Jan-19 01:01S 40°22' E 173°18'1018.7
2019-Jan-19 00:29S 40°26' E 173°30'918.6
2019-Jan-19 00:00S 40°29' E 173°41'918.7
2019-Jan-18 23:31S 40°32' E 173°53'918.2
2019-Jan-18 23:00S 40°36' E 174°04'918.6
2019-Jan-18 22:31S 40°43' E 174°12'1019.3
2019-Jan-18 22:01S 40°51' E 174°20'918.5
2019-Jan-18 21:31S 40°58' E 174°27'917.9
2019-Jan-18 21:01S 41°07' E 174°30'1020.1
2019-Jan-18 20:31S 41°17' E 174°28'1019.9
2019-Jan-18 20:01S 41°27' E 174°27'1019.8
2019-Jan-18 19:30S 41°37' E 174°25'1019.3
2019-Jan-18 19:01S 41°46' E 174°24'1019.1
2019-Jan-18 18:30S 41°55' E 174°18'1019.3
2019-Jan-18 18:00S 42°03' E 174°11'9604.6
2019-Jan-18 18:00S 41°54' E 174°12'1938.3 360 / 351007.510.8 17.216.017.6
2019-Jan-18 17:30S 42°12' E 174°04'1020.2
2019-Jan-18 16:59S 42°21' E 173°57'1020.9
2019-Jan-18 16:31S 42°29' E 173°50'1121.0
2019-Jan-18 16:01S 42°38' E 173°43'1121.2
2019-Jan-18 15:28S 42°49' E 173°39'19220.3
2019-Jan-18 06:00S 45°24' E 171°00'161 4.2 060 / 101012.010.8 15.214.015.0
2019-Jan-16 15:20S 43°24' E 173°29'720.6
2019-Jan-16 15:00S 43°17' E 173°33'2486.8
2019-Jan-16 15:00S 43°18' E 173°30'1224.0 020 / 171008.810.8 14.512.716.6
2019-Jan-16 14:30S 43°08' E 173°39'1220.6
2019-Jan-16 13:55S 42°57' E 173°46'1320.5
2019-Jan-16 13:18S 42°46' E 173°53'820.3
2019-Jan-16 12:54S 42°38' E 173°58'820.3
2019-Jan-16 12:30S 42°31' E 174°02'1020.3
2019-Jan-16 12:00S 42°22' E 174°08'1020.3
2019-Jan-16 11:30S 42°13' E 174°14'1020.2
2019-Jan-16 11:00S 42°04' E 174°19'1020.1
2019-Jan-16 10:30S 41°54' E 174°23'1019.9
2019-Jan-16 10:00S 41°44' E 174°26'1020.6
2019-Jan-16 09:31S 41°34' E 174°26'1121.2
2019-Jan-16 09:00S 41°23' E 174°27'1020.9
2019-Jan-16 08:30S 41°13' E 174°29'1020.1
2019-Jan-16 08:00S 41°03' E 174°31'815.7
2019-Jan-16 07:30S 41°03' E 174°21'612.9
2019-Jan-16 07:01S 41°08' E 174°15'815.1
2019-Jan-16 06:30S 41°14' E 174°08'613.0
2019-Jan-16 06:00S 41°16' E 174°00'1 1.0
2019-Jan-16 05:28S 41°17' E 173°60'0 0.0
2019-Jan-16 04:58S 41°17' E 173°60'0 0.0
2019-Jan-16 04:28S 41°17' E 173°60'0 0.0
2019-Jan-16 03:58S 41°17' E 173°60'0 0.0
2019-Jan-16 03:28S 41°17' E 173°60'0 0.0
2019-Jan-16 02:58S 41°17' E 173°60'0 0.0
2019-Jan-16 02:28S 41°17' E 173°60'0 0.0
2019-Jan-16 01:58S 41°17' E 173°60'0 0.0
2019-Jan-16 01:28S 41°17' E 173°60'0 0.0
2019-Jan-16 00:58S 41°17' E 173°60'0 0.0
2019-Jan-16 00:28S 41°17' E 173°60'0 0.0
2019-Jan-15 23:58S 41°17' E 173°60'0 0.0
2019-Jan-15 23:28S 41°17' E 173°60'0 0.0
2019-Jan-15 22:58S 41°17' E 173°60'0 0.0
2019-Jan-15 22:30S 41°17' E 173°60'1 1.1
2019-Jan-15 22:00S 41°16' E 174°00'2 4.7
2019-Jan-15 21:30S 41°15' E 174°03'714.1
2019-Jan-15 21:00S 41°12' E 174°12'714.8
2019-Jan-15 20:30S 41°06' E 174°17'611.1
2019-Jan-15 20:00S 41°02' E 174°22'612.6
2019-Jan-15 19:30S 41°01' E 174°31'917.2
2019-Jan-15 19:01S 41°10' E 174°33'918.1
2019-Jan-15 18:31S 41°18' E 174°29'816.1
2019-Jan-15 18:01S 41°26' E 174°34'1121.1
2019-Jan-15 17:31S 41°31' E 174°46'1121.2
2019-Jan-15 17:01S 41°37' E 174°58'1021.0
2019-Jan-15 16:31S 41°42' E 175°10'1020.3
2019-Jan-15 16:00S 41°42' E 175°24'199 9.0
2019-Jan-14 18:00S 39°06' E 178°06'5819.6 070 / 71006.327.0 18.516.922.0
2019-Jan-14 15:00S 38°14' E 178°39'5318.6
2019-Jan-14 12:09S 37°22' E 178°26'3321.2
2019-Jan-14 10:36S 37°18' E 177°45'221.4
2019-Jan-14 10:30S 37°18' E 177°42'1121.5
2019-Jan-14 10:00S 37°17' E 177°29'1120.9
2019-Jan-14 09:30S 37°16' E 177°16'1020.5
2019-Jan-14 09:00S 37°16' E 177°03'1020.5
2019-Jan-14 08:30S 37°20' E 176°51'1020.3
2019-Jan-14 08:00S 37°24' E 176°39'1020.5
2019-Jan-14 07:30S 37°28' E 176°27'1019.5
2019-Jan-14 07:00S 37°32' E 176°16'714.4
2019-Jan-14 06:30S 37°38' E 176°10'1 2.4
2019-Jan-14 05:58S 37°39' E 176°11'0 0.0
2019-Jan-14 05:28S 37°39' E 176°11'0 0.0
2019-Jan-14 04:58S 37°39' E 176°11'0 0.0
2019-Jan-14 04:28S 37°39' E 176°11'0 0.0
2019-Jan-14 03:58S 37°39' E 176°11'0 0.0
2019-Jan-14 03:28S 37°39' E 176°11'0 0.0
2019-Jan-14 02:58S 37°39' E 176°11'0 0.0
2019-Jan-14 02:28S 37°39' E 176°11'0 0.0
2019-Jan-14 01:58S 37°39' E 176°11'0 0.0
2019-Jan-14 01:28S 37°39' E 176°11'0 0.0
2019-Jan-14 00:58S 37°39' E 176°11'0 0.0
2019-Jan-14 00:28S 37°39' E 176°11'0 0.0
2019-Jan-13 23:58S 37°39' E 176°11'0 0.0
2019-Jan-13 23:28S 37°39' E 176°11'0 0.0
2019-Jan-13 22:58S 37°39' E 176°11'0 0.0
2019-Jan-13 22:28S 37°39' E 176°11'0 0.0
2019-Jan-13 21:58S 37°39' E 176°11'0 0.0
2019-Jan-13 21:25S 37°39' E 176°11'0 0.0
2019-Jan-13 20:58S 37°39' E 176°11'0 0.0
2019-Jan-13 20:25S 37°39' E 176°11'0 0.0
2019-Jan-13 19:58S 37°39' E 176°11'0 0.0
2019-Jan-13 19:28S 37°39' E 176°11'0 0.0
2019-Jan-13 18:58S 37°39' E 176°11'0 0.0
2019-Jan-13 18:30S 37°39' E 176°11'2 3.4
2019-Jan-13 18:00S 37°37' E 176°10'5 9.8
2019-Jan-13 17:30S 37°33' E 176°13'712.7
2019-Jan-13 16:56S 37°26' E 176°17'79 8.6
2019-Jan-13 07:41S 36°32' E 175°04'2 9.6
2019-Jan-13 07:30S 36°34' E 175°02'5 9.9
2019-Jan-13 07:01S 36°37' E 174°58'5 9.9
2019-Jan-13 06:31S 36°41' E 174°54'5 9.9
2019-Jan-13 06:01S 36°44' E 174°50'4 8.7
2019-Jan-13 05:31S 36°49' E 174°50'3 6.6
2019-Jan-13 05:01S 36°50' E 174°46'0 0.4
2019-Jan-13 04:30S 36°51' E 174°46'0 0.0
2019-Jan-13 04:00S 36°51' E 174°46'0 0.0
2019-Jan-13 03:30S 36°51' E 174°46'0 0.0
2019-Jan-13 03:00S 36°51' E 174°46'  

Dump ship's entire track history